»·PEaware :: N4139Q KAVQ-KBXK

N4139Q :: KAVQ-KBXK

FLIGHT INFORMATION

Flight Status: Arrived
Operator: Privately registered:
United States
More flights under this callsign
Pilot: Joey C. (6821)
Aircraft: BEECH AIRCRAFT DEBONAIR BONANZA
(BE33)
More flights by this aircraft type
Origin: KAVQ Marana Northwest Regl
United States
Destination: KBXK Buckeye Mun
United States
More flights between these airports :: More routes between these airports
Route:
File this flight plan on PilotEdge
Remarks:
Altitude:
(Current/Filed)
6,500ft
Speed:
(Current/Filed)
165kts
Departed: 26-Sep-20 09:12 AM
Arrived: 26-Sep-20 09:49 AM
Distance/Time
Traveled:
96nm/0:37
Distance/Time
To Go:
Arrived

Flight Plot

Page will automatically refresh every two minutes.

Flight plan parsing failed; only flown route is shown


Map Options




Map Legend


Flown Route
Filed Route
Departure Airport
Arrival Airport
Navaid (VOR, NDB)
Fix

Horizontal Profiles

Position Reports

Time Latitude Longitude Heading Altitude Ground
Speed
26-Sep-20 09:03 32.405425 -111.214924 225 2026ft 0kts
26-Sep-20 09:04 32.405425 -111.214924 225 2026ft 0kts
26-Sep-20 09:05 32.405425 -111.214924 225 2026ft 0kts
26-Sep-20 09:06 32.405425 -111.214924 225 2026ft 0kts
26-Sep-20 09:07 32.405425 -111.214924 225 2026ft 0kts
26-Sep-20 09:08 32.405477 -111.214633 80 2027ft 6kts
26-Sep-20 09:09 32.403586 -111.211482 73 2028ft 0kts
26-Sep-20 09:10 32.403586 -111.211482 73 2028ft 0kts
26-Sep-20 09:11 32.406196 -111.212948 316 2028ft 67kts
26-Sep-20 09:12 32.425756 -111.238801 300 2843ft 117kts
26-Sep-20 09:13 32.444748 -111.269621 309 4083ft 118kts
26-Sep-20 09:14 32.465131 -111.300220 307 5232ft 119kts
26-Sep-20 09:15 32.481488 -111.335009 296 6269ft 123kts
26-Sep-20 09:16 32.504457 -111.372018 306 6651ft 160kts
26-Sep-20 09:17 32.534313 -111.417950 304 6471ft 180kts
26-Sep-20 09:18 32.561961 -111.467625 304 6463ft 179kts
26-Sep-20 09:19 32.589949 -111.516863 304 6456ft 179kts
26-Sep-20 09:20 32.619284 -111.564866 303 6469ft 178kts
26-Sep-20 09:21 32.648086 -111.613065 311 6465ft 178kts
26-Sep-20 09:22 32.679754 -111.658815 306 6463ft 178kts
26-Sep-20 09:23 32.709593 -111.706136 306 6458ft 178kts
26-Sep-20 09:24 32.736910 -111.755647 301 6462ft 178kts
26-Sep-20 09:25 32.762755 -111.806020 302 6445ft 179kts
26-Sep-20 09:26 32.792814 -111.853083 311 6473ft 177kts
26-Sep-20 09:27 32.822235 -111.900521 305 6481ft 178kts
26-Sep-20 09:28 32.850480 -111.949297 303 6487ft 178kts
26-Sep-20 09:29 32.877655 -111.998740 302 6492ft 178kts
26-Sep-20 09:30 32.907826 -112.045492 309 6516ft 177kts
26-Sep-20 09:31 32.935513 -112.094376 303 6523ft 177kts
26-Sep-20 09:32 32.962511 -112.143935 300 6561ft 177kts
26-Sep-20 09:33 32.988661 -112.194356 308 6512ft 180kts
26-Sep-20 09:34 33.019917 -112.241090 309 6527ft 180kts
26-Sep-20 09:35 33.050052 -112.285600 302 6431ft 167kts
26-Sep-20 09:36 33.075828 -112.330986 304 6299ft 164kts
26-Sep-20 09:37 33.101281 -112.374276 302 6391ft 155kts
26-Sep-20 09:38 33.127080 -112.418865 307 6671ft 167kts
26-Sep-20 09:39 33.153194 -112.464387 302 6925ft 175kts
26-Sep-20 09:40 33.185399 -112.512207 303 6652ft 188kts
26-Sep-20 09:41 33.216513 -112.561427 301 6293ft 181kts
26-Sep-20 09:42 33.244561 -112.611155 299 5497ft 180kts
26-Sep-20 09:43 33.271481 -112.662250 303 4678ft 180kts
26-Sep-20 09:44 33.307743 -112.699157 1 3634ft 180kts
26-Sep-20 09:45 33.345761 -112.692749 11 2318ft 107kts
26-Sep-20 09:46 33.373258 -112.689034 5 1718ft 93kts
26-Sep-20 09:47 33.398922 -112.687393 4 1264ft 91kts
26-Sep-20 09:48 33.420182 -112.686351 2 1005ft 25kts
26-Sep-20 09:49 33.419973 -112.683830 70 1004ft 7kts
26-Sep-20 09:50 33.420162 -112.683965 272 1005ft 0kts
26-Sep-20 09:51 33.420162 -112.683965 272 1005ft 0kts
26-Sep-20 09:52 33.420162 -112.683965 272 1005ft 0kts
26-Sep-20 09:53 33.420162 -112.683965 272 1005ft 0kts
26-Sep-20 09:54 33.420162 -112.683965 272 1005ft 0kts

Navigation Log

Ident Type
Flight plan parsing failed, navigation log unavailable